sensor_id;sensor_type;location;lat;lon;timestamp;temperature;humidity
14000;DHT22;7075;53.574;10.054;2023-05-23T00:00:26;19.00;99.90
14000;DHT22;7075;53.574;10.054;2023-05-23T00:02:53;19.00;99.90
14000;DHT22;7075;53.574;10.054;2023-05-23T00:05:18;19.10;99.90
14000;DHT22;7075;53.574;10.054;2023-05-23T00:07:44;18.90;99.90
14000;DHT22;7075;53.574;10.054;2023-05-23T00:10:10;18.80;99.90
14000;DHT22;7075;53.574;10.054;2023-05-23T00:12:36;18.90;99.90
14000;DHT22;7075;53.574;10.054;2023-05-23T00:15:04;18.90;99.90
14000;DHT22;7075;53.574;10.054;2023-05-23T00:17:33;18.70;99.90
14000;DHT22;7075;53.574;10.054;2023-05-23T00:20:02;18.70;99.90
14000;DHT22;7075;53.574;10.054;2023-05-23T00:22:28;18.80;99.90
14000;DHT22;7075;53.574;10.054;2023-05-23T00:24:53;18.80;99.90
14000;DHT22;7075;53.574;10.054;2023-05-23T00:27:19;18.80;99.90
14000;DHT22;7075;53.574;10.054;2023-05-23T00:29:44;18.80;99.90
14000;DHT22;7075;53.574;10.054;2023-05-23T00:32:10;18.90;99.90
14000;DHT22;7075;53.574;10.054;2023-05-23T00:34:35;18.90;99.90
14000;DHT22;7075;53.574;10.054;2023-05-23T00:37:02;18.80;99.90
14000;DHT22;7075;53.574;10.054;2023-05-23T00:39:29;18.80;99.90
14000;DHT22;7075;53.574;10.054;2023-05-23T00:41:54;18.80;99.90
14000;DHT22;7075;53.574;10.054;2023-05-23T00:44:22;18.70;99.90
14000;DHT22;7075;53.574;10.054;2023-05-23T00:46:50;18.70;99.90
14000;DHT22;7075;53.574;10.054;2023-05-23T00:49:16;18.70;99.90
14000;DHT22;7075;53.574;10.054;2023-05-23T00:51:44;18.70;99.90
14000;DHT22;7075;53.574;10.054;2023-05-23T00:54:11;18.70;99.90
14000;DHT22;7075;53.574;10.054;2023-05-23T00:56:37;18.70;99.90
14000;DHT22;7075;53.574;10.054;2023-05-23T00:59:04;18.60;99.90
14000;DHT22;7075;53.574;10.054;2023-05-23T01:01:30;18.60;99.90
14000;DHT22;7075;53.574;10.054;2023-05-23T01:03:57;18.60;99.90
14000;DHT22;7075;53.574;10.054;2023-05-23T01:06:23;18.50;99.90
14000;DHT22;7075;53.574;10.054;2023-05-23T01:08:49;18.50;99.90
14000;DHT22;7075;53.574;10.054;2023-05-23T01:11:24;18.60;99.90
14000;DHT22;7075;53.574;10.054;2023-05-23T01:14:14;18.60;99.90
14000;DHT22;7075;53.574;10.054;2023-05-23T01:16:46;18.60;99.90
14000;DHT22;7075;53.574;10.054;2023-05-23T01:21:54;18.60;99.90
14000;DHT22;7075;53.574;10.054;2023-05-23T01:27:02;18.60;99.90
14000;DHT22;7075;53.574;10.054;2023-05-23T01:29:44;18.60;99.90
14000;DHT22;7075;53.574;10.054;2023-05-23T01:32:11;18.60;99.90
14000;DHT22;7075;53.574;10.054;2023-05-23T01:34:39;18.60;99.90
14000;DHT22;7075;53.574;10.054;2023-05-23T01:37:10;18.60;99.90
14000;DHT22;7075;53.574;10.054;2023-05-23T01:39:36;18.60;99.90
14000;DHT22;7075;53.574;10.054;2023-05-23T01:42:02;18.60;99.90
14000;DHT22;7075;53.574;10.054;2023-05-23T01:44:29;18.60;99.90
14000;DHT22;7075;53.574;10.054;2023-05-23T01:46:54;18.60;99.90
14000;DHT22;7075;53.574;10.054;2023-05-23T01:49:21;18.60;99.90
14000;DHT22;7075;53.574;10.054;2023-05-23T01:51:48;18.60;99.90
14000;DHT22;7075;53.574;10.054;2023-05-23T01:54:15;18.50;99.90
14000;DHT22;7075;53.574;10.054;2023-05-23T01:56:41;18.50;99.90
14000;DHT22;7075;53.574;10.054;2023-05-23T01:59:08;18.50;99.90
14000;DHT22;7075;53.574;10.054;2023-05-23T02:01:36;18.50;99.90
14000;DHT22;7075;53.574;10.054;2023-05-23T02:04:02;18.40;99.90
14000;DHT22;7075;53.574;10.054;2023-05-23T02:06:28;18.20;99.90
14000;DHT22;7075;53.574;10.054;2023-05-23T02:08:53;18.00;99.90
14000;DHT22;7075;53.574;10.054;2023-05-23T02:11:19;17.90;99.90
14000;DHT22;7075;53.574;10.054;2023-05-23T02:13:46;17.80;99.90
14000;DHT22;7075;53.574;10.054;2023-05-23T02:16:12;17.80;99.90
14000;DHT22;7075;53.574;10.054;2023-05-23T02:18:38;17.80;99.90
14000;DHT22;7075;53.574;10.054;2023-05-23T02:21:07;17.70;99.90
14000;DHT22;7075;53.574;10.054;2023-05-23T02:23:32;17.70;99.90
14000;DHT22;7075;53.574;10.054;2023-05-23T02:26:17;17.70;99.90
14000;DHT22;7075;53.574;10.054;2023-05-23T02:28:43;17.50;99.90
14000;DHT22;7075;53.574;10.054;2023-05-23T02:31:08;17.50;99.90
14000;DHT22;7075;53.574;10.054;2023-05-23T02:33:34;17.50;99.90
14000;DHT22;7075;53.574;10.054;2023-05-23T02:36:00;17.40;99.90
14000;DHT22;7075;53.574;10.054;2023-05-23T02:38:26;17.40;99.90
14000;DHT22;7075;53.574;10.054;2023-05-23T02:40:52;17.50;99.90
14000;DHT22;7075;53.574;10.054;2023-05-23T02:43:18;17.30;99.90
14000;DHT22;7075;53.574;10.054;2023-05-23T02:45:44;17.30;99.90
14000;DHT22;7075;53.574;10.054;2023-05-23T02:48:10;17.30;99.90
14000;DHT22;7075;53.574;10.054;2023-05-23T02:50:36;17.30;99.90
14000;DHT22;7075;53.574;10.054;2023-05-23T02:53:02;17.20;99.90
14000;DHT22;7075;53.574;10.054;2023-05-23T02:55:28;17.20;99.90
14000;DHT22;7075;53.574;10.054;2023-05-23T02:57:53;17.20;99.90
14000;DHT22;7075;53.574;10.054;2023-05-23T03:00:19;17.20;99.90
14000;DHT22;7075;53.574;10.054;2023-05-23T03:02:44;17.30;99.90
14000;DHT22;7075;53.574;10.054;2023-05-23T03:05:10;17.20;99.90
14000;DHT22;7075;53.574;10.054;2023-05-23T03:07:36;17.20;99.90
14000;DHT22;7075;53.574;10.054;2023-05-23T03:10:02;17.10;99.90
14000;DHT22;7075;53.574;10.054;2023-05-23T03:12:28;17.10;99.90
14000;DHT22;7075;53.574;10.054;2023-05-23T03:14:54;17.00;99.90
14000;DHT22;7075;53.574;10.054;2023-05-23T03:17:20;17.00;99.90
14000;DHT22;7075;53.574;10.054;2023-05-23T03:19:45;17.10;99.90
14000;DHT22;7075;53.574;10.054;2023-05-23T03:22:11;17.10;99.90
14000;DHT22;7075;53.574;10.054;2023-05-23T03:24:36;17.00;99.90
14000;DHT22;7075;53.574;10.054;2023-05-23T03:27:02;16.90;99.90
14000;DHT22;7075;53.574;10.054;2023-05-23T03:29:28;16.90;99.90
14000;DHT22;7075;53.574;10.054;2023-05-23T03:31:53;16.80;99.90
14000;DHT22;7075;53.574;10.054;2023-05-23T03:34:19;16.90;99.90
14000;DHT22;7075;53.574;10.054;2023-05-23T03:36:45;16.80;99.90
14000;DHT22;7075;53.574;10.054;2023-05-23T03:39:10;16.90;99.90
14000;DHT22;7075;53.574;10.054;2023-05-23T03:41:36;16.90;99.90
14000;DHT22;7075;53.574;10.054;2023-05-23T03:44:02;16.90;99.90
14000;DHT22;7075;53.574;10.054;2023-05-23T03:46:27;16.80;99.90
14000;DHT22;7075;53.574;10.054;2023-05-23T03:48:53;16.70;99.90
14000;DHT22;7075;53.574;10.054;2023-05-23T03:51:19;16.70;99.90
14000;DHT22;7075;53.574;10.054;2023-05-23T03:53:45;16.70;99.90
14000;DHT22;7075;53.574;10.054;2023-05-23T03:56:10;16.60;99.90
14000;DHT22;7075;53.574;10.054;2023-05-23T03:58:36;16.60;99.90
14000;DHT22;7075;53.574;10.054;2023-05-23T04:01:01;16.60;99.90
14000;DHT22;7075;53.574;10.054;2023-05-23T04:03:29;16.60;99.90
14000;DHT22;7075;53.574;10.054;2023-05-23T04:05:57;16.60;99.90
14000;DHT22;7075;53.574;10.054;2023-05-23T04:08:23;16.70;99.90
14000;DHT22;7075;53.574;10.054;2023-05-23T04:10:55;16.60;99.90
14000;DHT22;7075;53.574;10.054;2023-05-23T04:13:20;16.60;99.90
14000;DHT22;7075;53.574;10.054;2023-05-23T04:15:47;16.60;99.90
14000;DHT22;7075;53.574;10.054;2023-05-23T04:18:13;16.60;99.90
14000;DHT22;7075;53.574;10.054;2023-05-23T04:20:40;16.60;99.90
14000;DHT22;7075;53.574;10.054;2023-05-23T04:23:06;16.60;99.90
14000;DHT22;7075;53.574;10.054;2023-05-23T04:25:31;16.50;99.90
14000;DHT22;7075;53.574;10.054;2023-05-23T04:27:58;16.60;99.90
14000;DHT22;7075;53.574;10.054;2023-05-23T04:30:24;16.50;99.90
14000;DHT22;7075;53.574;10.054;2023-05-23T04:32:49;16.40;99.90
14000;DHT22;7075;53.574;10.054;2023-05-23T04:35:15;16.50;99.90
14000;DHT22;7075;53.574;10.054;2023-05-23T04:37:41;16.50;99.90
14000;DHT22;7075;53.574;10.054;2023-05-23T04:40:07;16.40;99.90
14000;DHT22;7075;53.574;10.054;2023-05-23T04:42:33;16.40;99.90
14000;DHT22;7075;53.574;10.054;2023-05-23T04:44:58;16.50;99.90
14000;DHT22;7075;53.574;10.054;2023-05-23T04:47:26;16.40;99.90
14000;DHT22;7075;53.574;10.054;2023-05-23T04:49:56;16.30;99.90
14000;DHT22;7075;53.574;10.054;2023-05-23T04:52:22;16.30;99.90
14000;DHT22;7075;53.574;10.054;2023-05-23T04:54:47;16.20;99.90
14000;DHT22;7075;53.574;10.054;2023-05-23T04:57:13;16.20;99.90
14000;DHT22;7075;53.574;10.054;2023-05-23T04:59:39;16.20;99.90
14000;DHT22;7075;53.574;10.054;2023-05-23T05:02:05;16.20;99.90
14000;DHT22;7075;53.574;10.054;2023-05-23T05:04:30;16.30;99.90
14000;DHT22;7075;53.574;10.054;2023-05-23T05:06:56;16.30;99.90
14000;DHT22;7075;53.574;10.054;2023-05-23T05:09:22;16.30;99.90
14000;DHT22;7075;53.574;10.054;2023-05-23T05:11:48;16.20;99.90
14000;DHT22;7075;53.574;10.054;2023-05-23T05:14:13;16.10;99.90
14000;DHT22;7075;53.574;10.054;2023-05-23T05:16:39;16.20;99.90
14000;DHT22;7075;53.574;10.054;2023-05-23T05:19:05;16.10;99.90
14000;DHT22;7075;53.574;10.054;2023-05-23T05:21:30;16.20;99.90
14000;DHT22;7075;53.574;10.054;2023-05-23T05:23:56;16.20;99.90
14000;DHT22;7075;53.574;10.054;2023-05-23T05:26:22;16.20;99.90
14000;DHT22;7075;53.574;10.054;2023-05-23T05:28:47;16.10;99.90
14000;DHT22;7075;53.574;10.054;2023-05-23T05:31:13;16.20;99.90
14000;DHT22;7075;53.574;10.054;2023-05-23T05:33:40;16.10;99.90
14000;DHT22;7075;53.574;10.054;2023-05-23T05:36:06;16.10;99.90
14000;DHT22;7075;53.574;10.054;2023-05-23T05:38:32;16.10;99.90
14000;DHT22;7075;53.574;10.054;2023-05-23T05:40:58;16.00;99.90
14000;DHT22;7075;53.574;10.054;2023-05-23T05:43:25;16.10;99.90
14000;DHT22;7075;53.574;10.054;2023-05-23T05:45:50;16.10;99.90
14000;DHT22;7075;53.574;10.054;2023-05-23T05:48:16;16.10;99.90
14000;DHT22;7075;53.574;10.054;2023-05-23T05:50:42;16.00;99.90
14000;DHT22;7075;53.574;10.054;2023-05-23T05:53:12;16.10;99.90
14000;DHT22;7075;53.574;10.054;2023-05-23T05:55:37;16.00;99.90
14000;DHT22;7075;53.574;10.054;2023-05-23T05:58:03;16.10;99.90
14000;DHT22;7075;53.574;10.054;2023-05-23T06:00:29;16.00;99.90
14000;DHT22;7075;53.574;10.054;2023-05-23T06:02:55;16.00;99.90
14000;DHT22;7075;53.574;10.054;2023-05-23T06:05:24;16.10;99.90
14000;DHT22;7075;53.574;10.054;2023-05-23T06:07:50;16.10;99.90
14000;DHT22;7075;53.574;10.054;2023-05-23T06:10:15;16.10;99.90
14000;DHT22;7075;53.574;10.054;2023-05-23T06:12:41;16.10;99.90
14000;DHT22;7075;53.574;10.054;2023-05-23T06:15:07;16.10;99.90
14000;DHT22;7075;53.574;10.054;2023-05-23T06:17:34;16.10;99.90
14000;DHT22;7075;53.574;10.054;2023-05-23T06:20:00;16.00;99.90
14000;DHT22;7075;53.574;10.054;2023-05-23T06:22:25;16.00;99.90
14000;DHT22;7075;53.574;10.054;2023-05-23T06:24:51;16.00;99.90
14000;DHT22;7075;53.574;10.054;2023-05-23T06:27:17;15.90;99.90
14000;DHT22;7075;53.574;10.054;2023-05-23T06:29:42;16.00;99.90
14000;DHT22;7075;53.574;10.054;2023-05-23T06:32:08;15.90;99.90
14000;DHT22;7075;53.574;10.054;2023-05-23T06:34:33;16.00;99.90
14000;DHT22;7075;53.574;10.054;2023-05-23T06:36:59;16.00;99.90
14000;DHT22;7075;53.574;10.054;2023-05-23T06:39:24;16.10;99.90
14000;DHT22;7075;53.574;10.054;2023-05-23T06:41:50;16.00;99.90
14000;DHT22;7075;53.574;10.054;2023-05-23T06:44:15;16.10;99.90
14000;DHT22;7075;53.574;10.054;2023-05-23T06:46:45;16.10;99.90
14000;DHT22;7075;53.574;10.054;2023-05-23T06:49:11;16.00;99.90
14000;DHT22;7075;53.574;10.054;2023-05-23T06:51:36;16.10;99.90
14000;DHT22;7075;53.574;10.054;2023-05-23T06:54:02;16.10;99.90
14000;DHT22;7075;53.574;10.054;2023-05-23T06:56:28;16.10;99.90
14000;DHT22;7075;53.574;10.054;2023-05-23T06:58:53;16.10;99.90
14000;DHT22;7075;53.574;10.054;2023-05-23T07:01:19;16.10;99.90
14000;DHT22;7075;53.574;10.054;2023-05-23T07:03:44;16.00;99.90
14000;DHT22;7075;53.574;10.054;2023-05-23T07:06:10;16.00;99.90
14000;DHT22;7075;53.574;10.054;2023-05-23T07:08:37;16.00;99.90
14000;DHT22;7075;53.574;10.054;2023-05-23T07:11:03;16.10;99.90
14000;DHT22;7075;53.574;10.054;2023-05-23T07:13:28;16.10;99.90
14000;DHT22;7075;53.574;10.054;2023-05-23T07:15:55;16.00;99.90
14000;DHT22;7075;53.574;10.054;2023-05-23T07:18:20;16.00;99.90
14000;DHT22;7075;53.574;10.054;2023-05-23T07:20:46;16.00;99.90
14000;DHT22;7075;53.574;10.054;2023-05-23T07:23:12;16.00;99.90
14000;DHT22;7075;53.574;10.054;2023-05-23T07:25:37;15.90;99.90
14000;DHT22;7075;53.574;10.054;2023-05-23T07:28:04;15.90;99.90
14000;DHT22;7075;53.574;10.054;2023-05-23T07:30:30;15.90;99.90
14000;DHT22;7075;53.574;10.054;2023-05-23T07:32:58;15.90;99.90
14000;DHT22;7075;53.574;10.054;2023-05-23T07:35:23;16.00;99.90
14000;DHT22;7075;53.574;10.054;2023-05-23T07:37:54;15.90;99.90
14000;DHT22;7075;53.574;10.054;2023-05-23T07:40:20;15.90;99.90
14000;DHT22;7075;53.574;10.054;2023-05-23T07:42:46;16.00;99.90
14000;DHT22;7075;53.574;10.054;2023-05-23T07:45:12;15.90;99.90
14000;DHT22;7075;53.574;10.054;2023-05-23T07:47:38;15.90;99.90
14000;DHT22;7075;53.574;10.054;2023-05-23T07:50:05;16.00;99.90
14000;DHT22;7075;53.574;10.054;2023-05-23T07:52:30;16.00;99.90
14000;DHT22;7075;53.574;10.054;2023-05-23T07:54:57;16.00;99.90
14000;DHT22;7075;53.574;10.054;2023-05-23T07:57:23;16.00;99.90
14000;DHT22;7075;53.574;10.054;2023-05-23T07:59:51;16.00;99.90
14000;DHT22;7075;53.574;10.054;2023-05-23T08:02:17;16.00;99.90
14000;DHT22;7075;53.574;10.054;2023-05-23T08:04:42;16.00;99.90
14000;DHT22;7075;53.574;10.054;2023-05-23T08:07:09;16.10;99.90
14000;DHT22;7075;53.574;10.054;2023-05-23T08:09:36;16.20;99.90
14000;DHT22;7075;53.574;10.054;2023-05-23T08:12:02;16.20;99.90
14000;DHT22;7075;53.574;10.054;2023-05-23T08:14:28;16.10;99.90
14000;DHT22;7075;53.574;10.054;2023-05-23T08:16:53;16.10;99.90
14000;DHT22;7075;53.574;10.054;2023-05-23T08:19:19;16.10;99.90
14000;DHT22;7075;53.574;10.054;2023-05-23T08:21:46;16.10;99.90
14000;DHT22;7075;53.574;10.054;2023-05-23T08:24:12;16.00;99.90
14000;DHT22;7075;53.574;10.054;2023-05-23T08:26:38;16.00;99.90
14000;DHT22;7075;53.574;10.054;2023-05-23T08:29:04;16.00;99.90
14000;DHT22;7075;53.574;10.054;2023-05-23T08:31:33;16.00;99.90
14000;DHT22;7075;53.574;10.054;2023-05-23T08:33:58;16.00;99.90
14000;DHT22;7075;53.574;10.054;2023-05-23T08:36:24;16.00;99.90
14000;DHT22;7075;53.574;10.054;2023-05-23T08:38:50;16.00;99.90
14000;DHT22;7075;53.574;10.054;2023-05-23T08:41:22;16.10;99.90
14000;DHT22;7075;53.574;10.054;2023-05-23T08:43:48;16.10;99.90
14000;DHT22;7075;53.574;10.054;2023-05-23T08:46:21;16.10;99.90
14000;DHT22;7075;53.574;10.054;2023-05-23T08:48:54;16.10;99.90
14000;DHT22;7075;53.574;10.054;2023-05-23T08:51:42;16.00;99.90
14000;DHT22;7075;53.574;10.054;2023-05-23T08:54:10;16.00;99.90
14000;DHT22;7075;53.574;10.054;2023-05-23T08:56:37;16.00;99.90
14000;DHT22;7075;53.574;10.054;2023-05-23T08:59:04;15.90;99.90
14000;DHT22;7075;53.574;10.054;2023-05-23T09:01:31;15.90;99.90
14000;DHT22;7075;53.574;10.054;2023-05-23T09:03:58;15.90;99.90
14000;DHT22;7075;53.574;10.054;2023-05-23T09:06:29;15.90;99.90
14000;DHT22;7075;53.574;10.054;2023-05-23T09:08:56;15.90;99.90
14000;DHT22;7075;53.574;10.054;2023-05-23T09:11:22;16.00;99.90
14000;DHT22;7075;53.574;10.054;2023-05-23T09:13:49;15.90;99.90
14000;DHT22;7075;53.574;10.054;2023-05-23T09:16:16;15.90;99.90
14000;DHT22;7075;53.574;10.054;2023-05-23T09:18:44;15.90;99.90
14000;DHT22;7075;53.574;10.054;2023-05-23T09:21:11;15.70;99.90
14000;DHT22;7075;53.574;10.054;2023-05-23T09:23:39;15.60;99.90
14000;DHT22;7075;53.574;10.054;2023-05-23T09:26:09;15.50;99.90
14000;DHT22;7075;53.574;10.054;2023-05-23T09:28:36;15.50;99.90
14000;DHT22;7075;53.574;10.054;2023-05-23T09:31:06;15.50;99.90
14000;DHT22;7075;53.574;10.054;2023-05-23T09:33:47;15.40;99.90
14000;DHT22;7075;53.574;10.054;2023-05-23T09:36:15;15.40;99.90
14000;DHT22;7075;53.574;10.054;2023-05-23T09:38:44;15.40;99.90
14000;DHT22;7075;53.574;10.054;2023-05-23T09:41:12;15.30;99.90
14000;DHT22;7075;53.574;10.054;2023-05-23T09:44:03;15.30;99.90
14000;DHT22;7075;53.574;10.054;2023-05-23T09:46:27;15.20;99.90
14000;DHT22;7075;53.574;10.054;2023-05-23T09:48:53;15.20;99.90
14000;DHT22;7075;53.574;10.054;2023-05-23T09:51:22;15.10;99.90
14000;DHT22;7075;53.574;10.054;2023-05-23T09:53:49;15.10;99.90
14000;DHT22;7075;53.574;10.054;2023-05-23T09:56:16;15.00;99.90
14000;DHT22;7075;53.574;10.054;2023-05-23T09:58:47;15.00;99.90
14000;DHT22;7075;53.574;10.054;2023-05-23T10:01:15;14.90;99.90
14000;DHT22;7075;53.574;10.054;2023-05-23T10:03:45;14.90;99.90
14000;DHT22;7075;53.574;10.054;2023-05-23T10:06:22;14.90;99.90
14000;DHT22;7075;53.574;10.054;2023-05-23T10:08:56;14.90;99.90
14000;DHT22;7075;53.574;10.054;2023-05-23T10:14:25;15.00;99.90
14000;DHT22;7075;53.574;10.054;2023-05-23T10:17:14;15.00;99.90
14000;DHT22;7075;53.574;10.054;2023-05-23T10:19:47;15.00;99.90
14000;DHT22;7075;53.574;10.054;2023-05-23T10:22:14;15.00;99.90
14000;DHT22;7075;53.574;10.054;2023-05-23T10:24:44;14.80;99.90
14000;DHT22;7075;53.574;10.054;2023-05-23T10:27:12;14.80;99.90
14000;DHT22;7075;53.574;10.054;2023-05-23T10:29:40;14.80;99.90
14000;DHT22;7075;53.574;10.054;2023-05-23T10:32:08;14.90;99.90
14000;DHT22;7075;53.574;10.054;2023-05-23T10:41:07;14.80;99.90
14000;DHT22;7075;53.574;10.054;2023-05-23T10:46:15;14.90;99.90
14000;DHT22;7075;53.574;10.054;2023-05-23T10:48:42;15.00;99.90
14000;DHT22;7075;53.574;10.054;2023-05-23T10:51:13;14.90;99.90
14000;DHT22;7075;53.574;10.054;2023-05-23T10:53:43;14.90;99.90
14000;DHT22;7075;53.574;10.054;2023-05-23T10:56:20;14.90;99.90
14000;DHT22;7075;53.574;10.054;2023-05-23T10:58:53;14.90;99.90
14000;DHT22;7075;53.574;10.054;2023-05-23T11:01:19;15.00;99.90
14000;DHT22;7075;53.574;10.054;2023-05-23T11:06:38;14.90;99.90
14000;DHT22;7075;53.574;10.054;2023-05-23T11:09:10;14.90;99.90
14000;DHT22;7075;53.574;10.054;2023-05-23T11:12:03;14.90;99.90
14000;DHT22;7075;53.574;10.054;2023-05-23T11:19:38;14.90;99.90
14000;DHT22;7075;53.574;10.054;2023-05-23T11:22:07;15.00;99.90
14000;DHT22;7075;53.574;10.054;2023-05-23T11:24:56;15.00;99.90
14000;DHT22;7075;53.574;10.054;2023-05-23T11:27:49;15.10;99.90
14000;DHT22;7075;53.574;10.054;2023-05-23T11:30:16;15.10;99.90
14000;DHT22;7075;53.574;10.054;2023-05-23T11:32:50;15.20;99.90
14000;DHT22;7075;53.574;10.054;2023-05-23T11:35:16;15.20;99.90
14000;DHT22;7075;53.574;10.054;2023-05-23T11:37:42;15.30;99.90
14000;DHT22;7075;53.574;10.054;2023-05-23T11:40:28;15.40;99.90
14000;DHT22;7075;53.574;10.054;2023-05-23T11:42:54;15.30;99.90
14000;DHT22;7075;53.574;10.054;2023-05-23T11:45:25;15.50;99.90
14000;DHT22;7075;53.574;10.054;2023-05-23T11:47:51;15.70;99.90
14000;DHT22;7075;53.574;10.054;2023-05-23T11:50:18;15.70;99.90
14000;DHT22;7075;53.574;10.054;2023-05-23T11:52:50;15.70;99.90
14000;DHT22;7075;53.574;10.054;2023-05-23T11:55:19;15.70;99.90
14000;DHT22;7075;53.574;10.054;2023-05-23T11:57:46;15.60;99.90
14000;DHT22;7075;53.574;10.054;2023-05-23T12:00:13;15.40;99.90
14000;DHT22;7075;53.574;10.054;2023-05-23T12:02:42;15.30;99.90
14000;DHT22;7075;53.574;10.054;2023-05-23T12:05:12;15.40;99.90
14000;DHT22;7075;53.574;10.054;2023-05-23T12:07:42;15.40;99.90
14000;DHT22;7075;53.574;10.054;2023-05-23T12:10:11;15.40;99.90
14000;DHT22;7075;53.574;10.054;2023-05-23T12:12:40;15.50;99.90
14000;DHT22;7075;53.574;10.054;2023-05-23T12:15:07;15.60;99.90
14000;DHT22;7075;53.574;10.054;2023-05-23T12:17:34;15.70;99.90
14000;DHT22;7075;53.574;10.054;2023-05-23T12:20:00;15.60;99.90
14000;DHT22;7075;53.574;10.054;2023-05-23T12:22:27;15.70;99.90
14000;DHT22;7075;53.574;10.054;2023-05-23T12:24:54;15.80;99.90
14000;DHT22;7075;53.574;10.054;2023-05-23T12:27:29;16.00;99.90
14000;DHT22;7075;53.574;10.054;2023-05-23T12:30:15;16.10;99.90
14000;DHT22;7075;53.574;10.054;2023-05-23T12:32:42;16.10;99.90
14000;DHT22;7075;53.574;10.054;2023-05-23T12:35:10;16.10;99.90
14000;DHT22;7075;53.574;10.054;2023-05-23T12:37:43;16.20;99.90
14000;DHT22;7075;53.574;10.054;2023-05-23T12:40:11;16.20;99.90
14000;DHT22;7075;53.574;10.054;2023-05-23T12:42:55;16.20;99.90
14000;DHT22;7075;53.574;10.054;2023-05-23T12:45:35;16.20;99.90
14000;DHT22;7075;53.574;10.054;2023-05-23T12:48:03;16.10;99.90
14000;DHT22;7075;53.574;10.054;2023-05-23T12:50:29;16.10;99.90
14000;DHT22;7075;53.574;10.054;2023-05-23T12:52:55;16.10;99.90
14000;DHT22;7075;53.574;10.054;2023-05-23T12:55:24;16.30;99.90
14000;DHT22;7075;53.574;10.054;2023-05-23T12:57:50;16.40;99.90
14000;DHT22;7075;53.574;10.054;2023-05-23T13:00:16;16.50;99.90
14000;DHT22;7075;53.574;10.054;2023-05-23T13:02:43;16.60;99.90
14000;DHT22;7075;53.574;10.054;2023-05-23T13:05:09;16.60;99.90
14000;DHT22;7075;53.574;10.054;2023-05-23T13:07:36;16.50;99.90
14000;DHT22;7075;53.574;10.054;2023-05-23T13:10:04;16.50;99.90
14000;DHT22;7075;53.574;10.054;2023-05-23T13:12:30;16.50;99.90
14000;DHT22;7075;53.574;10.054;2023-05-23T13:14:57;16.50;99.90
14000;DHT22;7075;53.574;10.054;2023-05-23T13:17:23;16.40;99.90
14000;DHT22;7075;53.574;10.054;2023-05-23T13:19:49;16.40;99.90
14000;DHT22;7075;53.574;10.054;2023-05-23T13:22:17;16.50;99.90
14000;DHT22;7075;53.574;10.054;2023-05-23T13:24:43;16.40;99.90
14000;DHT22;7075;53.574;10.054;2023-05-23T13:27:08;16.30;99.90
14000;DHT22;7075;53.574;10.054;2023-05-23T13:29:34;16.30;99.90
14000;DHT22;7075;53.574;10.054;2023-05-23T13:32:00;16.00;99.90
14000;DHT22;7075;53.574;10.054;2023-05-23T13:34:26;15.80;99.90
14000;DHT22;7075;53.574;10.054;2023-05-23T13:36:56;15.80;99.90
14000;DHT22;7075;53.574;10.054;2023-05-23T13:39:21;15.80;99.90
14000;DHT22;7075;53.574;10.054;2023-05-23T13:41:48;15.80;99.90
14000;DHT22;7075;53.574;10.054;2023-05-23T13:44:14;16.00;99.90
14000;DHT22;7075;53.574;10.054;2023-05-23T13:46:40;16.00;99.90
14000;DHT22;7075;53.574;10.054;2023-05-23T13:49:05;15.90;99.90
14000;DHT22;7075;53.574;10.054;2023-05-23T13:51:30;16.00;99.90
14000;DHT22;7075;53.574;10.054;2023-05-23T13:53:56;16.10;99.90
14000;DHT22;7075;53.574;10.054;2023-05-23T13:56:22;16.10;99.90
14000;DHT22;7075;53.574;10.054;2023-05-23T13:58:48;16.30;99.90
14000;DHT22;7075;53.574;10.054;2023-05-23T14:01:14;16.40;99.90
14000;DHT22;7075;53.574;10.054;2023-05-23T14:03:40;16.50;99.90
14000;DHT22;7075;53.574;10.054;2023-05-23T14:06:05;16.60;99.90
14000;DHT22;7075;53.574;10.054;2023-05-23T14:08:32;16.50;99.90
14000;DHT22;7075;53.574;10.054;2023-05-23T14:10:57;16.50;99.90
14000;DHT22;7075;53.574;10.054;2023-05-23T14:13:23;16.40;99.90
14000;DHT22;7075;53.574;10.054;2023-05-23T14:15:51;16.40;99.90
14000;DHT22;7075;53.574;10.054;2023-05-23T14:18:18;16.60;99.90
14000;DHT22;7075;53.574;10.054;2023-05-23T14:20:44;16.70;99.90
14000;DHT22;7075;53.574;10.054;2023-05-23T14:23:09;16.70;99.90
14000;DHT22;7075;53.574;10.054;2023-05-23T14:25:35;16.80;99.90
14000;DHT22;7075;53.574;10.054;2023-05-23T14:28:01;16.70;99.90
14000;DHT22;7075;53.574;10.054;2023-05-23T14:30:26;16.60;99.90
14000;DHT22;7075;53.574;10.054;2023-05-23T14:32:52;16.60;99.90
14000;DHT22;7075;53.574;10.054;2023-05-23T14:35:18;16.50;99.90
14000;DHT22;7075;53.574;10.054;2023-05-23T14:37:44;16.40;99.90
14000;DHT22;7075;53.574;10.054;2023-05-23T14:40:10;16.20;99.90
14000;DHT22;7075;53.574;10.054;2023-05-23T14:42:36;16.10;99.90
14000;DHT22;7075;53.574;10.054;2023-05-23T14:45:02;16.10;99.90
14000;DHT22;7075;53.574;10.054;2023-05-23T14:47:29;16.00;99.90
14000;DHT22;7075;53.574;10.054;2023-05-23T14:49:55;16.00;99.90
14000;DHT22;7075;53.574;10.054;2023-05-23T14:52:20;16.00;99.90
14000;DHT22;7075;53.574;10.054;2023-05-23T14:54:46;15.90;99.90
14000;DHT22;7075;53.574;10.054;2023-05-23T14:57:11;15.90;99.90
14000;DHT22;7075;53.574;10.054;2023-05-23T14:59:37;15.90;99.90
14000;DHT22;7075;53.574;10.054;2023-05-23T15:02:03;15.90;99.90
14000;DHT22;7075;53.574;10.054;2023-05-23T15:04:29;16.00;99.90
14000;DHT22;7075;53.574;10.054;2023-05-23T15:06:54;16.20;99.90
14000;DHT22;7075;53.574;10.054;2023-05-23T15:09:20;16.30;99.90
14000;DHT22;7075;53.574;10.054;2023-05-23T15:11:47;16.40;99.90
14000;DHT22;7075;53.574;10.054;2023-05-23T15:14:14;16.20;99.90
14000;DHT22;7075;53.574;10.054;2023-05-23T15:16:40;16.00;99.90
14000;DHT22;7075;53.574;10.054;2023-05-23T15:19:08;16.00;99.90
14000;DHT22;7075;53.574;10.054;2023-05-23T15:21:34;16.00;99.90
14000;DHT22;7075;53.574;10.054;2023-05-23T15:24:00;16.00;99.90
14000;DHT22;7075;53.574;10.054;2023-05-23T15:26:26;15.90;99.90
14000;DHT22;7075;53.574;10.054;2023-05-23T15:28:52;16.00;99.90
14000;DHT22;7075;53.574;10.054;2023-05-23T15:31:18;15.90;99.90
14000;DHT22;7075;53.574;10.054;2023-05-23T15:33:44;15.90;99.90
14000;DHT22;7075;53.574;10.054;2023-05-23T15:36:09;15.90;99.90
14000;DHT22;7075;53.574;10.054;2023-05-23T15:38:37;16.00;99.90
14000;DHT22;7075;53.574;10.054;2023-05-23T15:41:03;16.10;99.90
14000;DHT22;7075;53.574;10.054;2023-05-23T15:43:30;16.10;99.90
14000;DHT22;7075;53.574;10.054;2023-05-23T15:45:57;16.00;99.90
14000;DHT22;7075;53.574;10.054;2023-05-23T15:48:23;15.90;99.90
14000;DHT22;7075;53.574;10.054;2023-05-23T15:50:48;15.70;99.90
14000;DHT22;7075;53.574;10.054;2023-05-23T15:53:15;15.60;99.90
14000;DHT22;7075;53.574;10.054;2023-05-23T15:55:40;15.50;99.90